Big Glory — H9IF — position and weather

sailwx.info

Track history (hours):
 
Tides and Currents Weather Stations Pressure Air Temp Water Temp Dewpoint Dewpoint Depression Visibility Wind Speed Wind Dir Waves Ship Positions

Big Glory

Last reported at 2018-Apr-04 14:18 UTC. Time now 2018-Apr-22 05:06 UTC.
Position N 34°06' E 139°17'.
Warning: this ship's position is 17 days out of date.

Length 190 m; draft 6.5 m.

Type: Ship. MMSI: 354285000.

Date/timePositionNaut miles runAvg speedWind from/ knotsBaromVisibWave heightAir tempDewpointWater temp
2018-Apr-04 14:18N 34°06' E 139°17'3 8.8
2018-Apr-04 13:59N 34°08' E 139°19'11 8.1
2018-Apr-04 12:37N 34°17' E 139°28'1 8.9
2018-Apr-04 12:30N 34°18' E 139°28'5 9.3
2018-Apr-04 11:57N 34°23' E 139°30'510.5
2018-Apr-04 11:30N 34°27' E 139°31'610.5
2018-Apr-04 10:59N 34°33' E 139°33'5 9.7
2018-Apr-04 10:30N 34°37' E 139°35'5 9.6
2018-Apr-04 10:00N 34°42' E 139°36'5 9.7
2018-Apr-04 09:30N 34°46' E 139°37'5 9.3
2018-Apr-04 09:00N 34°51' E 139°39'510.4
2018-Apr-04 08:30N 34°56' E 139°41'5 9.9
2018-Apr-04 08:00N 35°00' E 139°43'5 9.8
2018-Apr-04 07:30N 35°05' E 139°44'510.0
2018-Apr-04 07:00N 35°10' E 139°46'510.0
2018-Apr-04 06:30N 35°15' E 139°47'611.3
2018-Apr-04 06:00N 35°20' E 139°43'511.0
2018-Apr-04 05:30N 35°25' E 139°44'611.9
2018-Apr-04 05:00N 35°29' E 139°49'611.1
2018-Apr-04 04:30N 35°30' E 139°56'3 2.7
2018-Apr-04 03:17N 35°27' E 139°58'0 0.0
2018-Apr-04 02:59N 35°27' E 139°58'0 0.0
2018-Apr-04 02:23N 35°27' E 139°58'0 0.0
2018-Apr-04 01:59N 35°27' E 139°58'0 0.0
2018-Apr-04 01:17N 35°27' E 139°58'0 0.0
2018-Apr-04 00:53N 35°27' E 139°58'0 0.0
2018-Apr-04 00:26N 35°27' E 139°58'0 0.0
2018-Apr-03 23:59N 35°27' E 139°58'0 0.0
2018-Apr-03 23:26N 35°27' E 139°58'0 0.0
2018-Apr-03 22:59N 35°27' E 139°58'0 0.0
2018-Apr-03 22:29N 35°27' E 139°58'0 0.0
2018-Apr-03 21:56N 35°27' E 139°58'0 0.0
2018-Apr-03 21:26N 35°27' E 139°58'0 0.0
2018-Apr-03 20:59N 35°27' E 139°58'0 0.0
2018-Apr-03 20:23N 35°27' E 139°58'0 0.0
2018-Apr-03 19:56N 35°27' E 139°58'0 0.0
2018-Apr-03 19:29N 35°27' E 139°58'0 0.0
2018-Apr-03 18:59N 35°27' E 139°58'0 0.0
2018-Apr-03 18:29N 35°27' E 139°58'0 0.0
2018-Apr-03 17:59N 35°27' E 139°58'0 0.0
2018-Apr-03 17:26N 35°27' E 139°58'0 0.0
2018-Apr-03 16:56N 35°27' E 139°58'0 0.0
2018-Apr-03 16:29N 35°27' E 139°58'0 0.0
2018-Apr-03 15:59N 35°27' E 139°58'0 0.0
2018-Apr-03 15:29N 35°27' E 139°58'0 0.0
2018-Apr-03 14:53N 35°27' E 139°58'0 0.0
2018-Apr-03 14:20N 35°27' E 139°58'0 0.0
2018-Apr-03 13:59N 35°27' E 139°58'0 0.0
2018-Apr-03 13:29N 35°27' E 139°58'0 0.0
2018-Apr-03 12:53N 35°27' E 139°58'0 0.0
2018-Apr-03 12:29N 35°27' E 139°58'0 0.0
2018-Apr-03 11:47N 35°27' E 139°58'0 0.0
2018-Apr-03 11:29N 35°27' E 139°58'0 0.0
2018-Apr-03 10:59N 35°27' E 139°58'0 0.0
2018-Apr-03 10:29N 35°27' E 139°58'0 0.0
2018-Apr-03 09:59N 35°27' E 139°58'0 0.0
2018-Apr-03 09:29N 35°27' E 139°58'0 0.0
2018-Apr-03 08:59N 35°27' E 139°58'0 0.0
2018-Apr-03 08:23N 35°27' E 139°58'0 0.0
2018-Apr-03 07:50N 35°27' E 139°58'0 0.0
2018-Apr-03 07:29N 35°27' E 139°58'0 0.0
2018-Apr-03 06:59N 35°27' E 139°58'0 0.0
2018-Apr-03 06:29N 35°27' E 139°58'0 0.0
2018-Apr-03 05:59N 35°27' E 139°58'0 0.0
2018-Apr-03 05:28N 35°27' E 139°58'0 0.0
2018-Apr-03 04:59N 35°27' E 139°58'0 0.0
2018-Apr-03 04:29N 35°27' E 139°58'0 0.0
2018-Apr-03 03:59N 35°27' E 139°58'0 0.0
2018-Apr-03 03:29N 35°27' E 139°58'0 0.0
2018-Apr-03 02:59N 35°27' E 139°58'0 0.0
2018-Apr-03 02:29N 35°27' E 139°58'0 0.0
2018-Apr-03 01:59N 35°27' E 139°58'0 0.0
2018-Apr-03 01:26N 35°27' E 139°58'0 0.0
2018-Apr-03 00:59N 35°27' E 139°58'0 0.0
2018-Apr-03 00:29N 35°27' E 139°58'0 0.0
2018-Apr-02 23:59N 35°27' E 139°58'0 0.0
2018-Apr-02 23:29N 35°27' E 139°58'0 0.0
2018-Apr-02 22:59N 35°27' E 139°58'0 0.0
2018-Apr-02 22:29N 35°27' E 139°58'0 0.0
2018-Apr-02 21:59N 35°27' E 139°58'0 0.0
2018-Apr-02 21:26N 35°27' E 139°58'0 0.0
2018-Apr-02 20:56N 35°27' E 139°58'0 0.0
2018-Apr-02 20:29N 35°27' E 139°58'0 0.0
2018-Apr-02 19:59N 35°27' E 139°58'0 0.0
2018-Apr-02 19:29N 35°27' E 139°58'0 0.0
2018-Apr-02 18:59N 35°27' E 139°58'0 0.0
2018-Apr-02 18:26N 35°27' E 139°58'0 0.0
2018-Apr-02 17:53N 35°27' E 139°58'0 0.0
2018-Apr-02 17:29N 35°27' E 139°58'0 0.0
2018-Apr-02 16:59N 35°27' E 139°58'0 0.0
2018-Apr-02 16:26N 35°27' E 139°58'0 0.0
2018-Apr-02 15:59N 35°27' E 139°58'0 0.0
2018-Apr-02 15:29N 35°27' E 139°58'0 0.0
2018-Apr-02 14:59N 35°27' E 139°58'0 0.0
2018-Apr-02 14:26N 35°27' E 139°58'0 0.0
2018-Apr-02 13:56N 35°27' E 139°58'0 0.0
2018-Apr-02 13:29N 35°27' E 139°58'0 0.0
2018-Apr-02 12:59N 35°27' E 139°58'0 0.0
2018-Apr-02 12:29N 35°27' E 139°58'0 0.0
2018-Apr-02 11:53N 35°27' E 139°58'0 0.0
2018-Apr-02 11:29N 35°27' E 139°58'0 0.0
2018-Apr-02 10:53N 35°27' E 139°58'0 0.0
2018-Apr-02 10:26N 35°27' E 139°58'0 0.0
2018-Apr-02 09:58N 35°27' E 139°58'0 0.0
2018-Apr-02 09:26N 35°27' E 139°58'0 0.0
2018-Apr-02 08:59N 35°27' E 139°58'0 0.0
2018-Apr-02 08:29N 35°27' E 139°58'0 0.0
2018-Apr-02 07:59N 35°27' E 139°58'0 0.0
2018-Apr-02 07:29N 35°27' E 139°58'0 0.0
2018-Apr-02 06:58N 35°27' E 139°58'0 0.0
2018-Apr-02 06:28N 35°27' E 139°58'0 0.0
2018-Apr-02 05:59N 35°27' E 139°58'0 0.0
2018-Apr-02 05:29N 35°27' E 139°58'0 0.0
2018-Apr-02 04:56N 35°27' E 139°58'0 0.0
2018-Apr-02 04:26N 35°27' E 139°58'0 0.0
2018-Apr-02 03:58N 35°27' E 139°58'0 0.0
2018-Apr-02 03:26N 35°27' E 139°58'0 0.0
2018-Apr-02 02:56N 35°27' E 139°58'0 0.0
2018-Apr-02 02:29N 35°27' E 139°58'0 0.0
2018-Apr-02 01:59N 35°27' E 139°58'0 0.0
2018-Apr-02 01:29N 35°27' E 139°58'0 0.0
2018-Apr-02 00:59N 35°27' E 139°58'0 0.0
2018-Apr-02 00:29N 35°27' E 139°58'0 0.0
2018-Apr-01 23:59N 35°27' E 139°58'0 0.0
2018-Apr-01 23:26N 35°27' E 139°58'0 0.0
2018-Apr-01 22:59N 35°27' E 139°58'0 0.0
2018-Apr-01 22:30N 35°27' E 139°58'0 0.0
2018-Apr-01 22:00N 35°27' E 139°58'0 0.0
2018-Apr-01 21:27N 35°27' E 139°58'0 0.0
2018-Apr-01 20:57N 35°27' E 139°58'0 0.0
2018-Apr-01 20:30N 35°27' E 139°58'0 0.0
2018-Apr-01 20:00N 35°27' E 139°58'0 0.0
2018-Apr-01 19:30N 35°27' E 139°58'0 0.0
2018-Apr-01 19:00N 35°27' E 139°58'0 0.0
2018-Apr-01 18:30N 35°27' E 139°58'0 0.0
2018-Apr-01 18:00N 35°27' E 139°58'0 0.0
2018-Apr-01 17:30N 35°27' E 139°58'0 0.0
2018-Apr-01 17:00N 35°27' E 139°58'0 0.0
2018-Apr-01 16:21N 35°27' E 139°58'0 0.0
2018-Apr-01 16:00N 35°27' E 139°58'0 0.0
2018-Apr-01 15:30N 35°27' E 139°58'0 0.0
2018-Apr-01 15:00N 35°27' E 139°58'0 0.0
2018-Apr-01 14:30N 35°27' E 139°58'0 0.0
2018-Apr-01 14:00N 35°27' E 139°58'0 0.0
2018-Apr-01 13:27N 35°27' E 139°58'0 0.0
2018-Apr-01 13:00N 35°27' E 139°58'0 0.0
2018-Apr-01 12:30N 35°27' E 139°58'0 0.0
2018-Apr-01 11:59N 35°27' E 139°58'0 0.0
2018-Apr-01 11:30N 35°27' E 139°58'0 0.0
2018-Apr-01 11:00N 35°27' E 139°58'0 0.0
2018-Apr-01 10:30N 35°27' E 139°58'0 0.0
2018-Apr-01 10:00N 35°27' E 139°58'0 0.0
2018-Apr-01 09:30N 35°27' E 139°58'0 0.0
2018-Apr-01 09:00N 35°27' E 139°58'0 0.0
2018-Apr-01 08:30N 35°27' E 139°58'0 0.0
2018-Apr-01 07:54N 35°27' E 139°58'0 0.0
2018-Apr-01 07:30N 35°27' E 139°58'0 0.0
2018-Apr-01 07:00N 35°27' E 139°58'0 0.0
2018-Apr-01 06:26N 35°27' E 139°58'0 0.0
2018-Apr-01 06:00N 35°27' E 139°58'0 0.0
2018-Apr-01 05:30N 35°27' E 139°58'0 0.0
2018-Apr-01 04:56N 35°27' E 139°58'0 0.0
2018-Apr-01 04:30N 35°27' E 139°58'0 0.0
2018-Apr-01 04:00N 35°27' E 139°58'0 0.0
2018-Apr-01 03:30N 35°27' E 139°58'0 0.0
2018-Apr-01 03:00N 35°27' E 139°58'0 0.0
2018-Apr-01 02:24N 35°27' E 139°58'0 0.0
2018-Apr-01 02:00N 35°27' E 139°58'0 0.0
2018-Apr-01 01:30N 35°27' E 139°58'0 0.0
2018-Apr-01 01:00N 35°27' E 139°58'0 0.0
2018-Apr-01 00:30N 35°27' E 139°58'0 0.0
2018-Apr-01 00:00N 35°27' E 139°58'0 0.0
2018-Mar-31 23:30N 35°27' E 139°58'0 0.0
2018-Mar-31 23:00N 35°27' E 139°58'0 0.0
2018-Mar-31 22:27N 35°27' E 139°58'0 0.0
2018-Mar-31 22:00N 35°27' E 139°58'0 0.0
2018-Mar-31 21:30N 35°27' E 139°58'0 0.0
2018-Mar-31 20:57N 35°27' E 139°58'0 0.0
2018-Mar-31 20:30N 35°27' E 139°58'0 0.0
2018-Mar-31 20:00N 35°27' E 139°58'0 0.0
2018-Mar-31 19:27N 35°27' E 139°58'0 0.0
2018-Mar-31 19:00N 35°27' E 139°58'0 0.0
2018-Mar-31 18:30N 35°27' E 139°58'0 0.0
2018-Mar-31 17:57N 35°27' E 139°58'0 0.0
2018-Mar-31 17:30N 35°27' E 139°58'0 0.0
2018-Mar-31 16:57N 35°27' E 139°58'0 0.0
2018-Mar-31 16:27N 35°27' E 139°58'0 0.0
2018-Mar-31 16:00N 35°27' E 139°58'0 0.0
2018-Mar-31 15:30N 35°27' E 139°58'0 0.0
2018-Mar-31 15:00N 35°27' E 139°58'0 0.0
2018-Mar-31 14:30N 35°27' E 139°58'0 0.0
2018-Mar-31 13:57N 35°27' E 139°58'0 0.0
2018-Mar-31 13:30N 35°27' E 139°58'0 0.0
2018-Mar-31 13:00N 35°27' E 139°58'0 0.0
2018-Mar-31 12:27N 35°27' E 139°58'0 0.0
2018-Mar-31 12:00N 35°27' E 139°58'0 0.0
2018-Mar-31 11:30N 35°27' E 139°58'0 0.0
2018-Mar-31 10:57N 35°27' E 139°58'0 0.0
2018-Mar-31 10:30N 35°27' E 139°58'0 0.0
2018-Mar-31 09:57N 35°27' E 139°58'0 0.0
2018-Mar-31 09:27N 35°27' E 139°58'0 0.0
2018-Mar-31 08:59N 35°27' E 139°58'0 0.0
2018-Mar-31 08:24N 35°27' E 139°58'0 0.0
2018-Mar-31 08:00N 35°27' E 139°58'0 0.0
2018-Mar-31 07:30N 35°27' E 139°58'0 0.0
2018-Mar-31 06:51N 35°27' E 139°58'0 0.0
2018-Mar-31 06:27N 35°27' E 139°58'0 0.0
2018-Mar-31 06:00N 35°27' E 139°58'0 0.0
2018-Mar-31 05:21N 35°27' E 139°58'0 0.0
2018-Mar-31 05:00N 35°27' E 139°58'0 0.0
2018-Mar-31 04:30N 35°27' E 139°58'0 0.0
2018-Mar-31 04:00N 35°27' E 139°58'0 0.0
2018-Mar-31 03:30N 35°27' E 139°58'0 0.0
2018-Mar-31 03:00N 35°27' E 139°58'0 0.0
2018-Mar-31 02:30N 35°27' E 139°58'0 0.0
2018-Mar-31 02:00N 35°27' E 139°58'0 0.0
2018-Mar-31 01:30N 35°27' E 139°58'0 0.0
2018-Mar-31 01:00N 35°27' E 139°58'0 0.0
2018-Mar-31 00:27N 35°27' E 139°58'0 0.0
2018-Mar-30 23:54N 35°27' E 139°58'0 0.0
2018-Mar-30 23:30N 35°27' E 139°58'0 0.0
2018-Mar-30 22:57N 35°27' E 139°58'0 0.0
2018-Mar-30 22:24N 35°27' E 139°58'0 0.0
2018-Mar-30 21:54N 35°27' E 139°58'0 0.0
2018-Mar-30 21:24N 35°27' E 139°58'0 0.0
2018-Mar-30 20:57N 35°27' E 139°58'0 0.0
2018-Mar-30 20:30N 35°27' E 139°58'0 0.0
2018-Mar-30 19:57N 35°27' E 139°58'0 0.0
2018-Mar-30 19:30N 35°27' E 139°58'0 0.0
2018-Mar-30 19:00N 35°27' E 139°58'0 0.0
2018-Mar-30 18:30N 35°27' E 139°58'0 0.0
2018-Mar-30 18:00N 35°27' E 139°58'0 0.0
2018-Mar-30 17:30N 35°27' E 139°58'0 0.0
2018-Mar-30 16:48N 35°27' E 139°58'0 0.0
2018-Mar-30 16:30N 35°27' E 139°58'0 0.0
2018-Mar-30 16:00N 35°27' E 139°58'0 0.0
2018-Mar-30 15:24N 35°27' E 139°58'0 0.0
2018-Mar-30 14:57N 35°27' E 139°58'0 0.0
2018-Mar-30 14:30N 35°27' E 139°58'0 0.0
2018-Mar-30 14:00N 35°27' E 139°58'0 0.0
2018-Mar-30 13:27N 35°27' E 139°58'0 0.0
2018-Mar-30 13:00N 35°27' E 139°58'0 0.0
2018-Mar-30 12:30N 35°27' E 139°58'0 0.0
2018-Mar-30 11:54N 35°27' E 139°58'0 0.0
2018-Mar-30 11:30N 35°27' E 139°58'0 0.0
2018-Mar-30 10:57N 35°27' E 139°58'0 0.0
2018-Mar-30 10:30N 35°27' E 139°58'0 0.0
2018-Mar-30 10:00N 35°27' E 139°58'0 0.0
2018-Mar-30 09:30N 35°27' E 139°58'0 0.0
2018-Mar-30 08:59N 35°27' E 139°58'0 0.0
2018-Mar-30 08:30N 35°27' E 139°58'0 0.0
2018-Mar-30 08:00N 35°27' E 139°58'0 0.0
2018-Mar-30 07:27N 35°27' E 139°58'0 0.0
2018-Mar-30 07:00N 35°27' E 139°58'0 0.0
2018-Mar-30 06:26N 35°27' E 139°58'0 0.0
2018-Mar-30 06:00N 35°27' E 139°58'0 0.0
2018-Mar-30 05:27N 35°27' E 139°58'0 0.0
2018-Mar-30 05:00N 35°27' E 139°58'0 0.0
2018-Mar-30 04:27N 35°27' E 139°58'0 0.0
2018-Mar-30 03:57N 35°27' E 139°58'0 0.0
2018-Mar-30 03:27N 35°27' E 139°58'0 0.0
2018-Mar-30 03:00N 35°27' E 139°58'0 0.0
2018-Mar-30 02:30N 35°27' E 139°58'0 0.0
2018-Mar-30 02:00N 35°27' E 139°58'0 0.0
2018-Mar-30 01:27N 35°27' E 139°58'0 0.0
2018-Mar-30 01:00N 35°27' E 139°58'0 0.0
2018-Mar-30 00:30N 35°27' E 139°58'0 0.0
2018-Mar-30 00:00N 35°27' E 139°58'0 0.0
2018-Mar-29 23:30N 35°27' E 139°58'0 0.0
2018-Mar-29 22:54N 35°27' E 139°58'0 0.0
2018-Mar-29 22:24N 35°27' E 139°58'0 0.0
2018-Mar-29 22:00N 35°27' E 139°58'0 0.0
2018-Mar-29 21:30N 35°27' E 139°58'0 0.0
2018-Mar-29 21:00N 35°27' E 139°58'0 0.1
2018-Mar-29 20:30N 35°27' E 139°58'0 0.1
2018-Mar-29 20:00N 35°27' E 139°58'0 0.0
2018-Mar-29 19:24N 35°27' E 139°58'0 0.0
2018-Mar-29 18:59N 35°27' E 139°58'0 0.0
2018-Mar-29 18:30N 35°27' E 139°58'0 0.0
2018-Mar-29 18:00N 35°27' E 139°58'0 0.0
2018-Mar-29 17:29N 35°27' E 139°58'0 0.0
2018-Mar-29 16:59N 35°27' E 139°58'0 0.0
2018-Mar-29 16:24N 35°27' E 139°58'0 0.0
2018-Mar-29 16:00N 35°27' E 139°58'0 0.0
2018-Mar-29 15:30N 35°27' E 139°58'0 0.0
2018-Mar-29 15:00N 35°27' E 139°58'0 0.0
2018-Mar-29 14:30N 35°27' E 139°58'0 0.0
2018-Mar-29 14:00N 35°27' E 139°58'0 0.0
2018-Mar-29 13:27N 35°27' E 139°58'0 0.0
2018-Mar-29 13:00N 35°27' E 139°58'0 0.0
2018-Mar-29 12:30N 35°27' E 139°58'0 0.0
2018-Mar-29 11:57N 35°27' E 139°58'0 0.0
2018-Mar-29 11:30N 35°27' E 139°58'0 0.0
2018-Mar-29 11:00N 35°27' E 139°58'0 0.0
2018-Mar-29 10:24N 35°27' E 139°58'0 0.0
2018-Mar-29 09:59N 35°27' E 139°58'0 0.0
2018-Mar-29 09:29N 35°27' E 139°58'0 0.0
2018-Mar-29 08:57N 35°27' E 139°58'0 0.0
2018-Mar-29 08:27N 35°27' E 139°58'0 0.0
2018-Mar-29 08:00N 35°27' E 139°58'0 0.0
2018-Mar-29 07:27N 35°27' E 139°58'0 0.0
2018-Mar-29 07:00N 35°27' E 139°58'0 0.0
2018-Mar-29 06:26N 35°27' E 139°58'0 0.0
2018-Mar-29 06:00N 35°27' E 139°58'0 0.0
2018-Mar-29 05:30N 35°27' E 139°58'0 0.0
2018-Mar-29 05:00N 35°27' E 139°58'0 0.0
2018-Mar-29 04:30N 35°27' E 139°58'0 0.0
2018-Mar-29 03:59N 35°27' E 139°58'0 0.0
2018-Mar-29 03:27N 35°27' E 139°58'0 0.0
2018-Mar-29 02:48N 35°27' E 139°58'0 0.0
2018-Mar-29 02:27N 35°27' E 139°58'0 0.0
2018-Mar-29 02:00N 35°27' E 139°58'0 0.0
2018-Mar-29 01:30N 35°27' E 139°58'0 0.0
2018-Mar-29 01:00N 35°27' E 139°58'0 0.0
2018-Mar-29 00:30N 35°27' E 139°58'0 0.0
2018-Mar-28 23:57N 35°27' E 139°58'0 0.0
2018-Mar-28 23:30N 35°27' E 139°58'0 0.0
2018-Mar-28 23:00N 35°27' E 139°58'0 0.0
2018-Mar-28 22:30N 35°27' E 139°58'0 0.0
2018-Mar-28 22:00N 35°27' E 139°58'0 0.0
2018-Mar-28 21:27N 35°27' E 139°58'0 0.0
2018-Mar-28 20:57N 35°27' E 139°58'0 0.0
2018-Mar-28 20:30N 35°27' E 139°58'0 0.0
2018-Mar-28 20:00N 35°27' E 139°58'0 0.0
2018-Mar-28 19:30N 35°27' E 139°58'0 0.0
2018-Mar-28 19:00N 35°27' E 139°58'0 0.0
2018-Mar-28 18:30N 35°27' E 139°58'0 0.0
2018-Mar-28 18:00N 35°27' E 139°58'0 0.0
2018-Mar-28 17:30N 35°27' E 139°58'0 0.0
2018-Mar-28 17:00N 35°27' E 139°58'0 0.0
2018-Mar-28 16:30N 35°27' E 139°58'0 0.0
2018-Mar-28 15:54N 35°27' E 139°58'0 0.0
2018-Mar-28 15:30N 35°27' E 139°58'0 0.0
2018-Mar-28 14:57N 35°27' E 139°58'0 0.0
2018-Mar-28 14:30N 35°27' E 139°58'0 0.0
2018-Mar-28 14:00N 35°27' E 139°58'0 0.0
2018-Mar-28 13:30N 35°27' E 139°58'0 0.0
2018-Mar-28 13:00N 35°27' E 139°58'0 0.0
2018-Mar-28 12:30N 35°27' E 139°58'0 0.0
2018-Mar-28 12:00N 35°27' E 139°58'0 0.0
2018-Mar-28 11:30N 35°27' E 139°58'0 0.0
2018-Mar-28 10:57N 35°27' E 139°58'0 0.0
2018-Mar-28 10:30N 35°27' E 139°58'0 0.0
2018-Mar-28 10:00N 35°27' E 139°58'0 0.0
2018-Mar-28 09:30N 35°27' E 139°58'0 0.0
2018-Mar-28 09:00N 35°27' E 139°58'0 0.0
2018-Mar-28 08:30N 35°27' E 139°58'0 0.0
2018-Mar-28 07:54N 35°27' E 139°58'0 0.0
2018-Mar-28 07:30N 35°27' E 139°58'0 0.0
2018-Mar-28 07:00N 35°27' E 139°58'0 0.0
2018-Mar-28 06:27N 35°27' E 139°58'0 0.0
2018-Mar-28 06:00N 35°27' E 139°58'0 0.0
2018-Mar-28 05:30N 35°27' E 139°58'0 0.0
2018-Mar-28 04:54N 35°27' E 139°58'0 0.0
2018-Mar-28 04:27N 35°27' E 139°58'0 0.0
2018-Mar-28 04:00N 35°27' E 139°58'0 0.0
2018-Mar-28 03:30N 35°27' E 139°58'0 0.0
2018-Mar-28 03:00N 35°27' E 139°58'0 0.0
2018-Mar-28 02:18N 35°27' E 139°58'0 0.0
2018-Mar-28 01:57N 35°27' E 139°58'0 0.0
2018-Mar-28 01:30N 35°27' E 139°58'0 0.0
2018-Mar-28 00:54N 35°27' E 139°58'0 0.0
2018-Mar-28 00:27N 35°27' E 139°58'0 0.0
2018-Mar-28 00:00N 35°27' E 139°58'0 0.0
2018-Mar-27 23:30N 35°27' E 139°58'0 0.0
2018-Mar-27 22:57N 35°27' E 139°58'0 0.6
2018-Mar-27 22:30N 35°28' E 139°58'2 4.8
2018-Mar-27 22:00N 35°30' E 139°56'3 6.2
2018-Mar-27 21:30N 35°29' E 139°53'4 8.4
2018-Mar-27 21:00N 35°26' E 139°49'510.9
2018-Mar-27 20:30N 35°22' E 139°45'5 9.9
2018-Mar-27 20:00N 35°17' E 139°46'510.7
2018-Mar-27 19:30N 35°12' E 139°47'4 8.0
2018-Mar-27 19:00N 35°08' E 139°46'4 7.5
2018-Mar-27 18:30N 35°04' E 139°44'3 6.1
2018-Mar-27 18:00N 35°01' E 139°43'3 6.2
2018-Mar-27 17:30N 34°58' E 139°42'4 7.1
2018-Mar-27 16:56N 34°55' E 139°42'3 7.1
2018-Mar-27 16:30N 34°52' E 139°43'4 7.3
2018-Mar-27 16:00N 34°48' E 139°45'1 1.8
2018-Mar-27 15:27N 34°47' E 139°44'1 2.7
2018-Mar-27 15:00N 34°48' E 139°42'0 0.6
2018-Mar-27 14:26N 34°48' E 139°43'3 7.2
2018-Mar-27 14:00N 34°45' E 139°45'4 7.8
2018-Mar-27 13:30N 34°42' E 139°48'4 7.6
2018-Mar-27 12:59N 34°39' E 139°50'4 8.3
2018-Mar-27 12:29N 34°35' E 139°51'5 9.4
2018-Mar-27 12:00N 34°31' E 139°53'  
Track history (hours):
 
Tides and Currents Weather Stations Pressure Air Temp Water Temp Dewpoint Dewpoint Depression Visibility Wind Speed Wind Dir Waves Ship Positions

Big Glory

Last reported at 2018-Apr-04 14:18 UTC. Time now 2018-Apr-22 05:06 UTC.
Position N 34°06' E 139°17'.
Warning: this ship's position is 17 days out of date.

Length 190 m; draft 6.5 m.

Type: Ship. MMSI: 354285000.

Date/timePositionNaut miles runAvg speedWind from/ knotsBaromVisibWave heightAir tempDewpointWater temp
2018-Apr-04 14:18N 34°06' E 139°17'3 8.8
2018-Apr-04 13:59N 34°08' E 139°19'11 8.1
2018-Apr-04 12:37N 34°17' E 139°28'1 8.9
2018-Apr-04 12:30N 34°18' E 139°28'5 9.3
2018-Apr-04 11:57N 34°23' E 139°30'510.5
2018-Apr-04 11:30N 34°27' E 139°31'610.5
2018-Apr-04 10:59N 34°33' E 139°33'5 9.7
2018-Apr-04 10:30N 34°37' E 139°35'5 9.6
2018-Apr-04 10:00N 34°42' E 139°36'5 9.7
2018-Apr-04 09:30N 34°46' E 139°37'5 9.3
2018-Apr-04 09:00N 34°51' E 139°39'510.4
2018-Apr-04 08:30N 34°56' E 139°41'5 9.9
2018-Apr-04 08:00N 35°00' E 139°43'5 9.8
2018-Apr-04 07:30N 35°05' E 139°44'510.0
2018-Apr-04 07:00N 35°10' E 139°46'510.0
2018-Apr-04 06:30N 35°15' E 139°47'611.3
2018-Apr-04 06:00N 35°20' E 139°43'511.0
2018-Apr-04 05:30N 35°25' E 139°44'611.9
2018-Apr-04 05:00N 35°29' E 139°49'611.1
2018-Apr-04 04:30N 35°30' E 139°56'3 2.7
2018-Apr-04 03:17N 35°27' E 139°58'0 0.0
2018-Apr-04 02:59N 35°27' E 139°58'0 0.0
2018-Apr-04 02:23N 35°27' E 139°58'0 0.0
2018-Apr-04 01:59N 35°27' E 139°58'0 0.0
2018-Apr-04 01:17N 35°27' E 139°58'0 0.0
2018-Apr-04 00:53N 35°27' E 139°58'0 0.0
2018-Apr-04 00:26N 35°27' E 139°58'0 0.0
2018-Apr-03 23:59N 35°27' E 139°58'0 0.0
2018-Apr-03 23:26N 35°27' E 139°58'0 0.0
2018-Apr-03 22:59N 35°27' E 139°58'0 0.0
2018-Apr-03 22:29N 35°27' E 139°58'0 0.0
2018-Apr-03 21:56N 35°27' E 139°58'0 0.0
2018-Apr-03 21:26N 35°27' E 139°58'0 0.0
2018-Apr-03 20:59N 35°27' E 139°58'0 0.0
2018-Apr-03 20:23N 35°27' E 139°58'0 0.0
2018-Apr-03 19:56N 35°27' E 139°58'0 0.0
2018-Apr-03 19:29N 35°27' E 139°58'0 0.0
2018-Apr-03 18:59N 35°27' E 139°58'0 0.0
2018-Apr-03 18:29N 35°27' E 139°58'0 0.0
2018-Apr-03 17:59N 35°27' E 139°58'0 0.0
2018-Apr-03 17:26N 35°27' E 139°58'0 0.0
2018-Apr-03 16:56N 35°27' E 139°58'0 0.0
2018-Apr-03 16:29N 35°27' E 139°58'0 0.0
2018-Apr-03 15:59N 35°27' E 139°58'0 0.0
2018-Apr-03 15:29N 35°27' E 139°58'0 0.0
2018-Apr-03 14:53N 35°27' E 139°58'0 0.0
2018-Apr-03 14:20N 35°27' E 139°58'0 0.0
2018-Apr-03 13:59N 35°27' E 139°58'0 0.0
2018-Apr-03 13:29N 35°27' E 139°58'0 0.0
2018-Apr-03 12:53N 35°27' E 139°58'0 0.0
2018-Apr-03 12:29N 35°27' E 139°58'0 0.0
2018-Apr-03 11:47N 35°27' E 139°58'0 0.0
2018-Apr-03 11:29N 35°27' E 139°58'0 0.0
2018-Apr-03 10:59N 35°27' E 139°58'0 0.0
2018-Apr-03 10:29N 35°27' E 139°58'0 0.0
2018-Apr-03 09:59N 35°27' E 139°58'0 0.0
2018-Apr-03 09:29N 35°27' E 139°58'0 0.0
2018-Apr-03 08:59N 35°27' E 139°58'0 0.0
2018-Apr-03 08:23N 35°27' E 139°58'0 0.0
2018-Apr-03 07:50N 35°27' E 139°58'0 0.0
2018-Apr-03 07:29N 35°27' E 139°58'0 0.0
2018-Apr-03 06:59N 35°27' E 139°58'0 0.0
2018-Apr-03 06:29N 35°27' E 139°58'0 0.0
2018-Apr-03 05:59N 35°27' E 139°58'0 0.0
2018-Apr-03 05:28N 35°27' E 139°58'0 0.0
2018-Apr-03 04:59N 35°27' E 139°58'0 0.0
2018-Apr-03 04:29N 35°27' E 139°58'0 0.0
2018-Apr-03 03:59N 35°27' E 139°58'0 0.0
2018-Apr-03 03:29N 35°27' E 139°58'0 0.0
2018-Apr-03 02:59N 35°27' E 139°58'0 0.0
2018-Apr-03 02:29N 35°27' E 139°58'0 0.0
2018-Apr-03 01:59N 35°27' E 139°58'0 0.0
2018-Apr-03 01:26N 35°27' E 139°58'0 0.0
2018-Apr-03 00:59N 35°27' E 139°58'0 0.0
2018-Apr-03 00:29N 35°27' E 139°58'0 0.0
2018-Apr-02 23:59N 35°27' E 139°58'0 0.0
2018-Apr-02 23:29N 35°27' E 139°58'0 0.0
2018-Apr-02 22:59N 35°27' E 139°58'0 0.0
2018-Apr-02 22:29N 35°27' E 139°58'0 0.0
2018-Apr-02 21:59N 35°27' E 139°58'0 0.0
2018-Apr-02 21:26N 35°27' E 139°58'0 0.0
2018-Apr-02 20:56N 35°27' E 139°58'0 0.0
2018-Apr-02 20:29N 35°27' E 139°58'0 0.0
2018-Apr-02 19:59N 35°27' E 139°58'0 0.0
2018-Apr-02 19:29N 35°27' E 139°58'0 0.0
2018-Apr-02 18:59N 35°27' E 139°58'0 0.0
2018-Apr-02 18:26N 35°27' E 139°58'0 0.0
2018-Apr-02 17:53N 35°27' E 139°58'0 0.0
2018-Apr-02 17:29N 35°27' E 139°58'0 0.0
2018-Apr-02 16:59N 35°27' E 139°58'0 0.0
2018-Apr-02 16:26N 35°27' E 139°58'0 0.0
2018-Apr-02 15:59N 35°27' E 139°58'0 0.0
2018-Apr-02 15:29N 35°27' E 139°58'0 0.0
2018-Apr-02 14:59N 35°27' E 139°58'0 0.0
2018-Apr-02 14:26N 35°27' E 139°58'0 0.0
2018-Apr-02 13:56N 35°27' E 139°58'0 0.0
2018-Apr-02 13:29N 35°27' E 139°58'0 0.0
2018-Apr-02 12:59N 35°27' E 139°58'0 0.0
2018-Apr-02 12:29N 35°27' E 139°58'0 0.0
2018-Apr-02 11:53N 35°27' E 139°58'0 0.0
2018-Apr-02 11:29N 35°27' E 139°58'0 0.0
2018-Apr-02 10:53N 35°27' E 139°58'0 0.0
2018-Apr-02 10:26N 35°27' E 139°58'0 0.0
2018-Apr-02 09:58N 35°27' E 139°58'0 0.0
2018-Apr-02 09:26N 35°27' E 139°58'0 0.0
2018-Apr-02 08:59N 35°27' E 139°58'0 0.0
2018-Apr-02 08:29N 35°27' E 139°58'0 0.0
2018-Apr-02 07:59N 35°27' E 139°58'0 0.0
2018-Apr-02 07:29N 35°27' E 139°58'0 0.0
2018-Apr-02 06:58N 35°27' E 139°58'0 0.0
2018-Apr-02 06:28N 35°27' E 139°58'0 0.0
2018-Apr-02 05:59N 35°27' E 139°58'0 0.0
2018-Apr-02 05:29N 35°27' E 139°58'0 0.0
2018-Apr-02 04:56N 35°27' E 139°58'0 0.0
2018-Apr-02 04:26N 35°27' E 139°58'0 0.0
2018-Apr-02 03:58N 35°27' E 139°58'0 0.0
2018-Apr-02 03:26N 35°27' E 139°58'0 0.0
2018-Apr-02 02:56N 35°27' E 139°58'0 0.0
2018-Apr-02 02:29N 35°27' E 139°58'0 0.0
2018-Apr-02 01:59N 35°27' E 139°58'0 0.0
2018-Apr-02 01:29N 35°27' E 139°58'0 0.0
2018-Apr-02 00:59N 35°27' E 139°58'0 0.0
2018-Apr-02 00:29N 35°27' E 139°58'0 0.0
2018-Apr-01 23:59N 35°27' E 139°58'0 0.0
2018-Apr-01 23:26N 35°27' E 139°58'0 0.0
2018-Apr-01 22:59N 35°27' E 139°58'0 0.0
2018-Apr-01 22:30N 35°27' E 139°58'0 0.0
2018-Apr-01 22:00N 35°27' E 139°58'0 0.0
2018-Apr-01 21:27N 35°27' E 139°58'0 0.0
2018-Apr-01 20:57N 35°27' E 139°58'0 0.0
2018-Apr-01 20:30N 35°27' E 139°58'0 0.0
2018-Apr-01 20:00N 35°27' E 139°58'0 0.0
2018-Apr-01 19:30N 35°27' E 139°58'0 0.0
2018-Apr-01 19:00N 35°27' E 139°58'0 0.0
2018-Apr-01 18:30N 35°27' E 139°58'0 0.0
2018-Apr-01 18:00N 35°27' E 139°58'0 0.0
2018-Apr-01 17:30N 35°27' E 139°58'0 0.0
2018-Apr-01 17:00N 35°27' E 139°58'0 0.0
2018-Apr-01 16:21N 35°27' E 139°58'0 0.0
2018-Apr-01 16:00N 35°27' E 139°58'0 0.0
2018-Apr-01 15:30N 35°27' E 139°58'0 0.0
2018-Apr-01 15:00N 35°27' E 139°58'0 0.0
2018-Apr-01 14:30N 35°27' E 139°58'0 0.0
2018-Apr-01 14:00N 35°27' E 139°58'0 0.0
2018-Apr-01 13:27N 35°27' E 139°58'0 0.0
2018-Apr-01 13:00N 35°27' E 139°58'0 0.0
2018-Apr-01 12:30N 35°27' E 139°58'0 0.0
2018-Apr-01 11:59N 35°27' E 139°58'0 0.0
2018-Apr-01 11:30N 35°27' E 139°58'0 0.0
2018-Apr-01 11:00N 35°27' E 139°58'0 0.0
2018-Apr-01 10:30N 35°27' E 139°58'0 0.0
2018-Apr-01 10:00N 35°27' E 139°58'0 0.0
2018-Apr-01 09:30N 35°27' E 139°58'0 0.0
2018-Apr-01 09:00N 35°27' E 139°58'0 0.0
2018-Apr-01 08:30N 35°27' E 139°58'0 0.0
2018-Apr-01 07:54N 35°27' E 139°58'0 0.0
2018-Apr-01 07:30N 35°27' E 139°58'0 0.0
2018-Apr-01 07:00N 35°27' E 139°58'0 0.0
2018-Apr-01 06:26N 35°27' E 139°58'0 0.0
2018-Apr-01 06:00N 35°27' E 139°58'0 0.0
2018-Apr-01 05:30N 35°27' E 139°58'0 0.0
2018-Apr-01 04:56N 35°27' E 139°58'0 0.0
2018-Apr-01 04:30N 35°27' E 139°58'0 0.0
2018-Apr-01 04:00N 35°27' E 139°58'0 0.0
2018-Apr-01 03:30N 35°27' E 139°58'0 0.0
2018-Apr-01 03:00N 35°27' E 139°58'0 0.0
2018-Apr-01 02:24N 35°27' E 139°58'0 0.0
2018-Apr-01 02:00N 35°27' E 139°58'0 0.0
2018-Apr-01 01:30N 35°27' E 139°58'0 0.0
2018-Apr-01 01:00N 35°27' E 139°58'0 0.0
2018-Apr-01 00:30N 35°27' E 139°58'0 0.0
2018-Apr-01 00:00N 35°27' E 139°58'0 0.0
2018-Mar-31 23:30N 35°27' E 139°58'0 0.0
2018-Mar-31 23:00N 35°27' E 139°58'0 0.0
2018-Mar-31 22:27N 35°27' E 139°58'0 0.0
2018-Mar-31 22:00N 35°27' E 139°58'0 0.0
2018-Mar-31 21:30N 35°27' E 139°58'0 0.0
2018-Mar-31 20:57N 35°27' E 139°58'0 0.0
2018-Mar-31 20:30N 35°27' E 139°58'0 0.0
2018-Mar-31 20:00N 35°27' E 139°58'0 0.0
2018-Mar-31 19:27N 35°27' E 139°58'0 0.0
2018-Mar-31 19:00N 35°27' E 139°58'0 0.0
2018-Mar-31 18:30N 35°27' E 139°58'0 0.0
2018-Mar-31 17:57N 35°27' E 139°58'0 0.0
2018-Mar-31 17:30N 35°27' E 139°58'0 0.0
2018-Mar-31 16:57N 35°27' E 139°58'0 0.0
2018-Mar-31 16:27N 35°27' E 139°58'0 0.0
2018-Mar-31 16:00N 35°27' E 139°58'0 0.0
2018-Mar-31 15:30N 35°27' E 139°58'0 0.0
2018-Mar-31 15:00N 35°27' E 139°58'0 0.0
2018-Mar-31 14:30N 35°27' E 139°58'0 0.0
2018-Mar-31 13:57N 35°27' E 139°58'0 0.0
2018-Mar-31 13:30N 35°27' E 139°58'0 0.0
2018-Mar-31 13:00N 35°27' E 139°58'0 0.0
2018-Mar-31 12:27N 35°27' E 139°58'0 0.0
2018-Mar-31 12:00N 35°27' E 139°58'0 0.0
2018-Mar-31 11:30N 35°27' E 139°58'0 0.0
2018-Mar-31 10:57N 35°27' E 139°58'0 0.0
2018-Mar-31 10:30N 35°27' E 139°58'0 0.0
2018-Mar-31 09:57N 35°27' E 139°58'0 0.0
2018-Mar-31 09:27N 35°27' E 139°58'0 0.0
2018-Mar-31 08:59N 35°27' E 139°58'0 0.0
2018-Mar-31 08:24N 35°27' E 139°58'0 0.0
2018-Mar-31 08:00N 35°27' E 139°58'0 0.0
2018-Mar-31 07:30N 35°27' E 139°58'0 0.0
2018-Mar-31 06:51N 35°27' E 139°58'0 0.0
2018-Mar-31 06:27N 35°27' E 139°58'0 0.0
2018-Mar-31 06:00N 35°27' E 139°58'0 0.0
2018-Mar-31 05:21N 35°27' E 139°58'0 0.0
2018-Mar-31 05:00N 35°27' E 139°58'0 0.0
2018-Mar-31 04:30N 35°27' E 139°58'0 0.0
2018-Mar-31 04:00N 35°27' E 139°58'0 0.0
2018-Mar-31 03:30N 35°27' E 139°58'0 0.0
2018-Mar-31 03:00N 35°27' E 139°58'0 0.0
2018-Mar-31 02:30N 35°27' E 139°58'0 0.0
2018-Mar-31 02:00N 35°27' E 139°58'0 0.0
2018-Mar-31 01:30N 35°27' E 139°58'0 0.0
2018-Mar-31 01:00N 35°27' E 139°58'0 0.0
2018-Mar-31 00:27N 35°27' E 139°58'0 0.0
2018-Mar-30 23:54N 35°27' E 139°58'0 0.0
2018-Mar-30 23:30N 35°27' E 139°58'0 0.0
2018-Mar-30 22:57N 35°27' E 139°58'0 0.0
2018-Mar-30 22:24N 35°27' E 139°58'0 0.0
2018-Mar-30 21:54N 35°27' E 139°58'0 0.0
2018-Mar-30 21:24N 35°27' E 139°58'0 0.0
2018-Mar-30 20:57N 35°27' E 139°58'0 0.0
2018-Mar-30 20:30N 35°27' E 139°58'0 0.0
2018-Mar-30 19:57N 35°27' E 139°58'0 0.0
2018-Mar-30 19:30N 35°27' E 139°58'0 0.0
2018-Mar-30 19:00N 35°27' E 139°58'0 0.0
2018-Mar-30 18:30N 35°27' E 139°58'0 0.0
2018-Mar-30 18:00N 35°27' E 139°58'0 0.0
2018-Mar-30 17:30N 35°27' E 139°58'0 0.0
2018-Mar-30 16:48N 35°27' E 139°58'0 0.0
2018-Mar-30 16:30N 35°27' E 139°58'0 0.0
2018-Mar-30 16:00N 35°27' E 139°58'0 0.0
2018-Mar-30 15:24N 35°27' E 139°58'0 0.0
2018-Mar-30 14:57N 35°27' E 139°58'0 0.0
2018-Mar-30 14:30N 35°27' E 139°58'0 0.0
2018-Mar-30 14:00N 35°27' E 139°58'0 0.0
2018-Mar-30 13:27N 35°27' E 139°58'0 0.0
2018-Mar-30 13:00N 35°27' E 139°58'0 0.0
2018-Mar-30 12:30N 35°27' E 139°58'0 0.0
2018-Mar-30 11:54N 35°27' E 139°58'0 0.0
2018-Mar-30 11:30N 35°27' E 139°58'0 0.0
2018-Mar-30 10:57N 35°27' E 139°58'0 0.0
2018-Mar-30 10:30N 35°27' E 139°58'0 0.0
2018-Mar-30 10:00N 35°27' E 139°58'0 0.0
2018-Mar-30 09:30N 35°27' E 139°58'0 0.0
2018-Mar-30 08:59N 35°27' E 139°58'0 0.0
2018-Mar-30 08:30N 35°27' E 139°58'0 0.0
2018-Mar-30 08:00N 35°27' E 139°58'0 0.0
2018-Mar-30 07:27N 35°27' E 139°58'0 0.0
2018-Mar-30 07:00N 35°27' E 139°58'0 0.0
2018-Mar-30 06:26N 35°27' E 139°58'0 0.0
2018-Mar-30 06:00N 35°27' E 139°58'0 0.0
2018-Mar-30 05:27N 35°27' E 139°58'0 0.0
2018-Mar-30 05:00N 35°27' E 139°58'0 0.0
2018-Mar-30 04:27N 35°27' E 139°58'0 0.0
2018-Mar-30 03:57N 35°27' E 139°58'0 0.0
2018-Mar-30 03:27N 35°27' E 139°58'0 0.0
2018-Mar-30 03:00N 35°27' E 139°58'0 0.0
2018-Mar-30 02:30N 35°27' E 139°58'0 0.0
2018-Mar-30 02:00N 35°27' E 139°58'0 0.0
2018-Mar-30 01:27N 35°27' E 139°58'0 0.0
2018-Mar-30 01:00N 35°27' E 139°58'0 0.0
2018-Mar-30 00:30N 35°27' E 139°58'0 0.0
2018-Mar-30 00:00N 35°27' E 139°58'0 0.0
2018-Mar-29 23:30N 35°27' E 139°58'0 0.0
2018-Mar-29 22:54N 35°27' E 139°58'0 0.0
2018-Mar-29 22:24N 35°27' E 139°58'0 0.0
2018-Mar-29 22:00N 35°27' E 139°58'0 0.0
2018-Mar-29 21:30N 35°27' E 139°58'0 0.0
2018-Mar-29 21:00N 35°27' E 139°58'0 0.1
2018-Mar-29 20:30N 35°27' E 139°58'0 0.1
2018-Mar-29 20:00N 35°27' E 139°58'0 0.0
2018-Mar-29 19:24N 35°27' E 139°58'0 0.0
2018-Mar-29 18:59N 35°27' E 139°58'0 0.0
2018-Mar-29 18:30N 35°27' E 139°58'0 0.0
2018-Mar-29 18:00N 35°27' E 139°58'0 0.0
2018-Mar-29 17:29N 35°27' E 139°58'0 0.0
2018-Mar-29 16:59N 35°27' E 139°58'0 0.0
2018-Mar-29 16:24N 35°27' E 139°58'0 0.0
2018-Mar-29 16:00N 35°27' E 139°58'0 0.0
2018-Mar-29 15:30N 35°27' E 139°58'0 0.0
2018-Mar-29 15:00N 35°27' E 139°58'0 0.0
2018-Mar-29 14:30N 35°27' E 139°58'0 0.0
2018-Mar-29 14:00N 35°27' E 139°58'0 0.0
2018-Mar-29 13:27N 35°27' E 139°58'0 0.0
2018-Mar-29 13:00N 35°27' E 139°58'0 0.0
2018-Mar-29 12:30N 35°27' E 139°58'0 0.0
2018-Mar-29 11:57N 35°27' E 139°58'0 0.0
2018-Mar-29 11:30N 35°27' E 139°58'0 0.0
2018-Mar-29 11:00N 35°27' E 139°58'0 0.0
2018-Mar-29 10:24N 35°27' E 139°58'0 0.0
2018-Mar-29 09:59N 35°27' E 139°58'0 0.0
2018-Mar-29 09:29N 35°27' E 139°58'0 0.0
2018-Mar-29 08:57N 35°27' E 139°58'0 0.0
2018-Mar-29 08:27N 35°27' E 139°58'0 0.0
2018-Mar-29 08:00N 35°27' E 139°58'0 0.0
2018-Mar-29 07:27N 35°27' E 139°58'0 0.0
2018-Mar-29 07:00N 35°27' E 139°58'0 0.0
2018-Mar-29 06:26N 35°27' E 139°58'0 0.0
2018-Mar-29 06:00N 35°27' E 139°58'0 0.0
2018-Mar-29 05:30N 35°27' E 139°58'0 0.0
2018-Mar-29 05:00N 35°27' E 139°58'0 0.0
2018-Mar-29 04:30N 35°27' E 139°58'0 0.0
2018-Mar-29 03:59N 35°27' E 139°58'0 0.0
2018-Mar-29 03:27N 35°27' E 139°58'0 0.0
2018-Mar-29 02:48N 35°27' E 139°58'0 0.0
2018-Mar-29 02:27N 35°27' E 139°58'0 0.0
2018-Mar-29 02:00N 35°27' E 139°58'0 0.0
2018-Mar-29 01:30N 35°27' E 139°58'0 0.0
2018-Mar-29 01:00N 35°27' E 139°58'0 0.0
2018-Mar-29 00:30N 35°27' E 139°58'0 0.0
2018-Mar-28 23:57N 35°27' E 139°58'0 0.0
2018-Mar-28 23:30N 35°27' E 139°58'0 0.0
2018-Mar-28 23:00N 35°27' E 139°58'0 0.0
2018-Mar-28 22:30N 35°27' E 139°58'0 0.0
2018-Mar-28 22:00N 35°27' E 139°58'0 0.0
2018-Mar-28 21:27N 35°27' E 139°58'0 0.0
2018-Mar-28 20:57N 35°27' E 139°58'0 0.0
2018-Mar-28 20:30N 35°27' E 139°58'0 0.0
2018-Mar-28 20:00N 35°27' E 139°58'0 0.0
2018-Mar-28 19:30N 35°27' E 139°58'0 0.0
2018-Mar-28 19:00N 35°27' E 139°58'0 0.0
2018-Mar-28 18:30N 35°27' E 139°58'0 0.0
2018-Mar-28 18:00N 35°27' E 139°58'0 0.0
2018-Mar-28 17:30N 35°27' E 139°58'0 0.0
2018-Mar-28 17:00N 35°27' E 139°58'0 0.0
2018-Mar-28 16:30N 35°27' E 139°58'0 0.0
2018-Mar-28 15:54N 35°27' E 139°58'0 0.0
2018-Mar-28 15:30N 35°27' E 139°58'0 0.0
2018-Mar-28 14:57N 35°27' E 139°58'0 0.0
2018-Mar-28 14:30N 35°27' E 139°58'0 0.0
2018-Mar-28 14:00N 35°27' E 139°58'0 0.0
2018-Mar-28 13:30N 35°27' E 139°58'0 0.0
2018-Mar-28 13:00N 35°27' E 139°58'0 0.0
2018-Mar-28 12:30N 35°27' E 139°58'0 0.0
2018-Mar-28 12:00N 35°27' E 139°58'0 0.0
2018-Mar-28 11:30N 35°27' E 139°58'0 0.0
2018-Mar-28 10:57N 35°27' E 139°58'0 0.0
2018-Mar-28 10:30N 35°27' E 139°58'0 0.0
2018-Mar-28 10:00N 35°27' E 139°58'0 0.0
2018-Mar-28 09:30N 35°27' E 139°58'0 0.0
2018-Mar-28 09:00N 35°27' E 139°58'0 0.0
2018-Mar-28 08:30N 35°27' E 139°58'0 0.0
2018-Mar-28 07:54N 35°27' E 139°58'0 0.0
2018-Mar-28 07:30N 35°27' E 139°58'0 0.0
2018-Mar-28 07:00N 35°27' E 139°58'0 0.0
2018-Mar-28 06:27N 35°27' E 139°58'0 0.0
2018-Mar-28 06:00N 35°27' E 139°58'0 0.0
2018-Mar-28 05:30N 35°27' E 139°58'0 0.0
2018-Mar-28 04:54N 35°27' E 139°58'0 0.0
2018-Mar-28 04:27N 35°27' E 139°58'0 0.0
2018-Mar-28 04:00N 35°27' E 139°58'0 0.0
2018-Mar-28 03:30N 35°27' E 139°58'0 0.0
2018-Mar-28 03:00N 35°27' E 139°58'0 0.0
2018-Mar-28 02:18N 35°27' E 139°58'0 0.0
2018-Mar-28 01:57N 35°27' E 139°58'0 0.0
2018-Mar-28 01:30N 35°27' E 139°58'0 0.0
2018-Mar-28 00:54N 35°27' E 139°58'0 0.0
2018-Mar-28 00:27N 35°27' E 139°58'0 0.0
2018-Mar-28 00:00N 35°27' E 139°58'0 0.0
2018-Mar-27 23:30N 35°27' E 139°58'0 0.0
2018-Mar-27 22:57N 35°27' E 139°58'0 0.6
2018-Mar-27 22:30N 35°28' E 139°58'2 4.8
2018-Mar-27 22:00N 35°30' E 139°56'3 6.2
2018-Mar-27 21:30N 35°29' E 139°53'4 8.4
2018-Mar-27 21:00N 35°26' E 139°49'510.9
2018-Mar-27 20:30N 35°22' E 139°45'5 9.9
2018-Mar-27 20:00N 35°17' E 139°46'510.7
2018-Mar-27 19:30N 35°12' E 139°47'4 8.0
2018-Mar-27 19:00N 35°08' E 139°46'4 7.5
2018-Mar-27 18:30N 35°04' E 139°44'3 6.1
2018-Mar-27 18:00N 35°01' E 139°43'3 6.2
2018-Mar-27 17:30N 34°58' E 139°42'4 7.1
2018-Mar-27 16:56N 34°55' E 139°42'3 7.1
2018-Mar-27 16:30N 34°52' E 139°43'4 7.3
2018-Mar-27 16:00N 34°48' E 139°45'1 1.8
2018-Mar-27 15:27N 34°47' E 139°44'1 2.7
2018-Mar-27 15:00N 34°48' E 139°42'0 0.6
2018-Mar-27 14:26N 34°48' E 139°43'3 7.2
2018-Mar-27 14:00N 34°45' E 139°45'4 7.8
2018-Mar-27 13:30N 34°42' E 139°48'4 7.6
2018-Mar-27 12:59N 34°39' E 139°50'4 8.3
2018-Mar-27 12:29N 34°35' E 139°51'5 9.4
2018-Mar-27 12:00N 34°31' E 139°53'  

Dump ship's entire track history